Terminal Aerodrome Forecast
Issued by NWS Northern Indiana

Home | Current Version | Previous Version | Text Only | Print | Product List | Glossary Off
Versions: 1 2 3 4 5 6 7 8 9 10 11 12 13 14 15 16 17 18

627
FTUS43 KIWX 231732
TAFFWA
TAF
KFWA 231732Z 2318/2418 36010KT 1SM BR OVC003
     FM232000 36010KT 4SM -RA OVC008
     FM240200 35010KT 2SM BR VCSH OVC003
     FM241500 29005KT 3SM BR OVC008
     FM241600 28005KT 4SM BR BKN010=

USA.gov is the U.S. government's official web portal to all federal, state and local government web resources and services.